sensor_id;sensor_type;location;lat;lon;timestamp;P1;durP1;ratioP1;P2;durP2;ratioP2
82781;SDS011;72517;47.260;11.422;2023-09-30T00:01:55;9.23;;;4.82;;
82781;SDS011;72517;47.260;11.422;2023-09-30T00:04:23;8.80;;;4.43;;
82781;SDS011;72517;47.260;11.422;2023-09-30T00:06:50;8.40;;;3.92;;
82781;SDS011;72517;47.260;11.422;2023-09-30T00:09:17;9.73;;;4.60;;
82781;SDS011;72517;47.260;11.422;2023-09-30T00:11:43;8.77;;;4.15;;
82781;SDS011;72517;47.260;11.422;2023-09-30T00:14:10;10.43;;;4.68;;
82781;SDS011;72517;47.260;11.422;2023-09-30T00:16:37;8.73;;;4.47;;
82781;SDS011;72517;47.260;11.422;2023-09-30T00:19:04;7.65;;;4.43;;
82781;SDS011;72517;47.260;11.422;2023-09-30T00:21:31;10.85;;;5.05;;
82781;SDS011;72517;47.260;11.422;2023-09-30T00:23:57;7.97;;;4.45;;
82781;SDS011;72517;47.260;11.422;2023-09-30T00:26:24;7.63;;;4.63;;
82781;SDS011;72517;47.260;11.422;2023-09-30T00:28:51;10.65;;;4.90;;
82781;SDS011;72517;47.260;11.422;2023-09-30T00:31:18;6.90;;;4.32;;
82781;SDS011;72517;47.260;11.422;2023-09-30T00:33:45;8.23;;;4.65;;
82781;SDS011;72517;47.260;11.422;2023-09-30T00:36:12;10.65;;;4.80;;
82781;SDS011;72517;47.260;11.422;2023-09-30T00:38:39;12.77;;;5.20;;
82781;SDS011;72517;47.260;11.422;2023-09-30T00:41:06;14.13;;;4.95;;
82781;SDS011;72517;47.260;11.422;2023-09-30T00:43:33;11.23;;;5.03;;
82781;SDS011;72517;47.260;11.422;2023-09-30T00:46:10;7.72;;;4.80;;
82781;SDS011;72517;47.260;11.422;2023-09-30T00:48:40;10.85;;;4.63;;
82781;SDS011;72517;47.260;11.422;2023-09-30T00:51:07;9.00;;;5.25;;
82781;SDS011;72517;47.260;11.422;2023-09-30T00:53:34;12.88;;;4.95;;
82781;SDS011;72517;47.260;11.422;2023-09-30T00:56:01;8.85;;;5.18;;
82781;SDS011;72517;47.260;11.422;2023-09-30T00:58:28;9.30;;;4.85;;
82781;SDS011;72517;47.260;11.422;2023-09-30T01:00:56;7.70;;;4.32;;
82781;SDS011;72517;47.260;11.422;2023-09-30T01:03:24;9.02;;;4.95;;
82781;SDS011;72517;47.260;11.422;2023-09-30T01:05:51;9.38;;;4.88;;
82781;SDS011;72517;47.260;11.422;2023-09-30T01:08:19;8.60;;;4.55;;
82781;SDS011;72517;47.260;11.422;2023-09-30T01:10:47;8.13;;;5.43;;
82781;SDS011;72517;47.260;11.422;2023-09-30T01:13:14;9.48;;;4.82;;
82781;SDS011;72517;47.260;11.422;2023-09-30T01:15:41;9.38;;;4.70;;
82781;SDS011;72517;47.260;11.422;2023-09-30T01:18:08;12.73;;;4.60;;
82781;SDS011;72517;47.260;11.422;2023-09-30T01:20:34;9.55;;;4.55;;
82781;SDS011;72517;47.260;11.422;2023-09-30T01:23:02;7.78;;;4.63;;
82781;SDS011;72517;47.260;11.422;2023-09-30T01:25:29;8.27;;;4.68;;
82781;SDS011;72517;47.260;11.422;2023-09-30T01:27:58;8.68;;;4.65;;
82781;SDS011;72517;47.260;11.422;2023-09-30T01:30:31;9.77;;;4.70;;
82781;SDS011;72517;47.260;11.422;2023-09-30T01:32:58;8.90;;;5.07;;
82781;SDS011;72517;47.260;11.422;2023-09-30T01:35:25;7.72;;;4.53;;
82781;SDS011;72517;47.260;11.422;2023-09-30T01:37:52;7.63;;;4.55;;
82781;SDS011;72517;47.260;11.422;2023-09-30T01:40:19;7.45;;;4.28;;
82781;SDS011;72517;47.260;11.422;2023-09-30T01:42:45;11.60;;;4.75;;
82781;SDS011;72517;47.260;11.422;2023-09-30T01:45:12;8.45;;;4.35;;
82781;SDS011;72517;47.260;11.422;2023-09-30T01:47:39;8.63;;;4.65;;
82781;SDS011;72517;47.260;11.422;2023-09-30T01:50:06;8.68;;;4.15;;
82781;SDS011;72517;47.260;11.422;2023-09-30T01:52:33;7.15;;;4.38;;
82781;SDS011;72517;47.260;11.422;2023-09-30T01:55:00;10.43;;;4.20;;
82781;SDS011;72517;47.260;11.422;2023-09-30T01:57:27;6.22;;;4.25;;
82781;SDS011;72517;47.260;11.422;2023-09-30T01:59:54;6.55;;;4.13;;
82781;SDS011;72517;47.260;11.422;2023-09-30T02:02:21;8.25;;;4.30;;
82781;SDS011;72517;47.260;11.422;2023-09-30T02:04:48;6.30;;;3.80;;
82781;SDS011;72517;47.260;11.422;2023-09-30T02:07:14;8.18;;;4.32;;
82781;SDS011;72517;47.260;11.422;2023-09-30T02:09:41;6.32;;;3.97;;
82781;SDS011;72517;47.260;11.422;2023-09-30T02:12:08;7.45;;;4.55;;
82781;SDS011;72517;47.260;11.422;2023-09-30T02:14:35;8.73;;;3.85;;
82781;SDS011;72517;47.260;11.422;2023-09-30T02:17:03;7.10;;;3.97;;
82781;SDS011;72517;47.260;11.422;2023-09-30T02:19:30;8.48;;;4.35;;
82781;SDS011;72517;47.260;11.422;2023-09-30T02:21:59;8.25;;;3.08;;
82781;SDS011;72517;47.260;11.422;2023-09-30T02:24:26;9.80;;;4.28;;
82781;SDS011;72517;47.260;11.422;2023-09-30T02:26:53;9.02;;;4.45;;
82781;SDS011;72517;47.260;11.422;2023-09-30T02:29:19;9.90;;;4.88;;
82781;SDS011;72517;47.260;11.422;2023-09-30T02:31:46;7.57;;;3.88;;
82781;SDS011;72517;47.260;11.422;2023-09-30T02:34:13;8.25;;;4.15;;
82781;SDS011;72517;47.260;11.422;2023-09-30T02:36:40;8.65;;;4.22;;
82781;SDS011;72517;47.260;11.422;2023-09-30T02:39:07;8.27;;;4.82;;
82781;SDS011;72517;47.260;11.422;2023-09-30T02:41:35;9.38;;;5.03;;
82781;SDS011;72517;47.260;11.422;2023-09-30T02:44:02;6.50;;;4.00;;
82781;SDS011;72517;47.260;11.422;2023-09-30T02:46:29;8.55;;;4.40;;
82781;SDS011;72517;47.260;11.422;2023-09-30T02:48:56;8.88;;;4.28;;
82781;SDS011;72517;47.260;11.422;2023-09-30T02:51:23;8.40;;;4.28;;
82781;SDS011;72517;47.260;11.422;2023-09-30T02:53:50;7.15;;;4.03;;
82781;SDS011;72517;47.260;11.422;2023-09-30T02:56:17;8.48;;;4.50;;
82781;SDS011;72517;47.260;11.422;2023-09-30T02:58:45;8.10;;;3.80;;
82781;SDS011;72517;47.260;11.422;2023-09-30T03:01:15;8.30;;;3.85;;
82781;SDS011;72517;47.260;11.422;2023-09-30T03:03:43;9.68;;;4.35;;
82781;SDS011;72517;47.260;11.422;2023-09-30T03:06:10;8.18;;;4.10;;
82781;SDS011;72517;47.260;11.422;2023-09-30T03:08:37;8.13;;;4.40;;
82781;SDS011;72517;47.260;11.422;2023-09-30T03:11:04;8.52;;;4.53;;
82781;SDS011;72517;47.260;11.422;2023-09-30T03:13:31;7.82;;;4.00;;
82781;SDS011;72517;47.260;11.422;2023-09-30T03:15:58;6.90;;;3.90;;
82781;SDS011;72517;47.260;11.422;2023-09-30T03:18:26;8.07;;;4.43;;
82781;SDS011;72517;47.260;11.422;2023-09-30T03:20:58;6.82;;;4.07;;
82781;SDS011;72517;47.260;11.422;2023-09-30T03:23:27;8.02;;;4.20;;
82781;SDS011;72517;47.260;11.422;2023-09-30T03:25:59;7.78;;;4.00;;
82781;SDS011;72517;47.260;11.422;2023-09-30T03:28:26;6.70;;;4.18;;
82781;SDS011;72517;47.260;11.422;2023-09-30T03:30:53;7.20;;;4.32;;
82781;SDS011;72517;47.260;11.422;2023-09-30T03:33:21;8.90;;;4.28;;
82781;SDS011;72517;47.260;11.422;2023-09-30T03:35:48;7.13;;;4.25;;
82781;SDS011;72517;47.260;11.422;2023-09-30T03:38:16;6.80;;;4.05;;
82781;SDS011;72517;47.260;11.422;2023-09-30T03:40:44;8.23;;;4.50;;
82781;SDS011;72517;47.260;11.422;2023-09-30T03:43:13;6.82;;;3.97;;
82781;SDS011;72517;47.260;11.422;2023-09-30T03:45:40;5.68;;;3.75;;
82781;SDS011;72517;47.260;11.422;2023-09-30T03:48:07;7.93;;;4.50;;
82781;SDS011;72517;47.260;11.422;2023-09-30T03:50:35;7.13;;;4.22;;
82781;SDS011;72517;47.260;11.422;2023-09-30T03:53:02;9.75;;;4.53;;
82781;SDS011;72517;47.260;11.422;2023-09-30T03:55:32;7.53;;;4.32;;
82781;SDS011;72517;47.260;11.422;2023-09-30T03:57:59;8.75;;;4.43;;
82781;SDS011;72517;47.260;11.422;2023-09-30T04:00:27;8.73;;;4.43;;
82781;SDS011;72517;47.260;11.422;2023-09-30T04:02:54;8.18;;;4.15;;
82781;SDS011;72517;47.260;11.422;2023-09-30T04:05:23;14.35;;;4.53;;
82781;SDS011;72517;47.260;11.422;2023-09-30T04:07:54;6.22;;;3.92;;
82781;SDS011;72517;47.260;11.422;2023-09-30T04:10:24;9.70;;;4.10;;
82781;SDS011;72517;47.260;11.422;2023-09-30T04:12:51;7.72;;;4.63;;
82781;SDS011;72517;47.260;11.422;2023-09-30T04:15:19;7.63;;;4.18;;
82781;SDS011;72517;47.260;11.422;2023-09-30T04:17:46;6.32;;;3.97;;
82781;SDS011;72517;47.260;11.422;2023-09-30T04:20:13;7.88;;;4.13;;
82781;SDS011;72517;47.260;11.422;2023-09-30T04:22:48;6.95;;;4.00;;
82781;SDS011;72517;47.260;11.422;2023-09-30T04:25:16;7.28;;;4.07;;
82781;SDS011;72517;47.260;11.422;2023-09-30T04:27:43;8.43;;;4.55;;
82781;SDS011;72517;47.260;11.422;2023-09-30T04:30:13;8.77;;;4.20;;
82781;SDS011;72517;47.260;11.422;2023-09-30T04:32:40;11.45;;;4.63;;
82781;SDS011;72517;47.260;11.422;2023-09-30T04:35:07;7.90;;;4.60;;
82781;SDS011;72517;47.260;11.422;2023-09-30T04:37:34;9.48;;;4.45;;
82781;SDS011;72517;47.260;11.422;2023-09-30T04:40:04;8.07;;;4.35;;
82781;SDS011;72517;47.260;11.422;2023-09-30T04:42:40;6.43;;;4.10;;
82781;SDS011;72517;47.260;11.422;2023-09-30T04:45:11;7.63;;;4.35;;
82781;SDS011;72517;47.260;11.422;2023-09-30T04:47:41;7.25;;;4.20;;
82781;SDS011;72517;47.260;11.422;2023-09-30T04:50:09;9.45;;;4.07;;
82781;SDS011;72517;47.260;11.422;2023-09-30T04:52:38;9.18;;;4.15;;
82781;SDS011;72517;47.260;11.422;2023-09-30T04:55:06;7.68;;;4.10;;
82781;SDS011;72517;47.260;11.422;2023-09-30T04:57:34;7.95;;;4.50;;
82781;SDS011;72517;47.260;11.422;2023-09-30T05:00:00;6.28;;;4.30;;
82781;SDS011;72517;47.260;11.422;2023-09-30T05:02:35;8.13;;;4.60;;
82781;SDS011;72517;47.260;11.422;2023-09-30T05:05:02;7.50;;;4.57;;
82781;SDS011;72517;47.260;11.422;2023-09-30T05:07:31;7.75;;;4.30;;
82781;SDS011;72517;47.260;11.422;2023-09-30T05:10:00;6.63;;;4.22;;
82781;SDS011;72517;47.260;11.422;2023-09-30T05:12:30;8.52;;;4.57;;
82781;SDS011;72517;47.260;11.422;2023-09-30T05:14:58;6.60;;;4.97;;
82781;SDS011;72517;47.260;11.422;2023-09-30T05:17:27;7.30;;;4.40;;
82781;SDS011;72517;47.260;11.422;2023-09-30T05:19:56;8.35;;;4.80;;
82781;SDS011;72517;47.260;11.422;2023-09-30T05:24:51;7.65;;;4.57;;
82781;SDS011;72517;47.260;11.422;2023-09-30T05:27:18;6.70;;;4.47;;
82781;SDS011;72517;47.260;11.422;2023-09-30T05:29:45;8.75;;;4.53;;
82781;SDS011;72517;47.260;11.422;2023-09-30T05:32:13;10.37;;;4.47;;
82781;SDS011;72517;47.260;11.422;2023-09-30T05:34:40;8.57;;;4.90;;
82781;SDS011;72517;47.260;11.422;2023-09-30T05:37:08;8.30;;;4.57;;
82781;SDS011;72517;47.260;11.422;2023-09-30T05:39:37;10.23;;;4.72;;
82781;SDS011;72517;47.260;11.422;2023-09-30T05:42:04;8.93;;;5.18;;
82781;SDS011;72517;47.260;11.422;2023-09-30T05:44:31;9.27;;;5.28;;
82781;SDS011;72517;47.260;11.422;2023-09-30T05:46:58;12.95;;;7.80;;
82781;SDS011;72517;47.260;11.422;2023-09-30T05:49:25;23.90;;;15.68;;
82781;SDS011;72517;47.260;11.422;2023-09-30T05:51:52;18.70;;;11.68;;
82781;SDS011;72517;47.260;11.422;2023-09-30T05:54:20;15.07;;;10.30;;
82781;SDS011;72517;47.260;11.422;2023-09-30T05:56:48;9.18;;;5.70;;
82781;SDS011;72517;47.260;11.422;2023-09-30T05:59:14;11.18;;;5.47;;
82781;SDS011;72517;47.260;11.422;2023-09-30T06:01:41;9.02;;;4.93;;
82781;SDS011;72517;47.260;11.422;2023-09-30T06:04:08;11.10;;;5.25;;
82781;SDS011;72517;47.260;11.422;2023-09-30T06:06:35;9.10;;;5.10;;
82781;SDS011;72517;47.260;11.422;2023-09-30T06:09:03;10.10;;;5.03;;
82781;SDS011;72517;47.260;11.422;2023-09-30T06:11:33;8.30;;;5.05;;
82781;SDS011;72517;47.260;11.422;2023-09-30T06:14:01;10.45;;;5.32;;
82781;SDS011;72517;47.260;11.422;2023-09-30T06:16:31;11.40;;;5.15;;
82781;SDS011;72517;47.260;11.422;2023-09-30T06:18:59;10.50;;;5.10;;
82781;SDS011;72517;47.260;11.422;2023-09-30T06:21:27;9.23;;;5.10;;
82781;SDS011;72517;47.260;11.422;2023-09-30T06:23:54;8.25;;;5.05;;
82781;SDS011;72517;47.260;11.422;2023-09-30T06:26:22;9.48;;;5.18;;
82781;SDS011;72517;47.260;11.422;2023-09-30T06:28:50;8.55;;;4.82;;
82781;SDS011;72517;47.260;11.422;2023-09-30T06:31:19;9.52;;;4.85;;
82781;SDS011;72517;47.260;11.422;2023-09-30T06:33:46;9.45;;;4.22;;
82781;SDS011;72517;47.260;11.422;2023-09-30T06:36:13;8.95;;;4.63;;
82781;SDS011;72517;47.260;11.422;2023-09-30T06:38:40;7.50;;;4.55;;
82781;SDS011;72517;47.260;11.422;2023-09-30T06:41:08;7.95;;;4.47;;
82781;SDS011;72517;47.260;11.422;2023-09-30T06:43:35;9.10;;;4.95;;
82781;SDS011;72517;47.260;11.422;2023-09-30T06:46:08;8.85;;;4.97;;
82781;SDS011;72517;47.260;11.422;2023-09-30T06:48:35;10.45;;;5.18;;
82781;SDS011;72517;47.260;11.422;2023-09-30T06:51:05;9.38;;;4.95;;
82781;SDS011;72517;47.260;11.422;2023-09-30T06:53:32;12.18;;;5.22;;
82781;SDS011;72517;47.260;11.422;2023-09-30T06:55:59;13.02;;;5.95;;
82781;SDS011;72517;47.260;11.422;2023-09-30T06:58:27;10.30;;;5.45;;
82781;SDS011;72517;47.260;11.422;2023-09-30T07:00:55;12.82;;;5.82;;
82781;SDS011;72517;47.260;11.422;2023-09-30T07:03:21;12.63;;;5.72;;
82781;SDS011;72517;47.260;11.422;2023-09-30T07:05:48;10.85;;;5.32;;
82781;SDS011;72517;47.260;11.422;2023-09-30T07:08:17;13.73;;;6.07;;
82781;SDS011;72517;47.260;11.422;2023-09-30T07:10:46;10.95;;;6.10;;
82781;SDS011;72517;47.260;11.422;2023-09-30T07:13:14;13.38;;;5.88;;
82781;SDS011;72517;47.260;11.422;2023-09-30T07:15:43;12.75;;;6.78;;
82781;SDS011;72517;47.260;11.422;2023-09-30T07:18:10;15.23;;;6.43;;
82781;SDS011;72517;47.260;11.422;2023-09-30T07:20:37;13.35;;;6.90;;
82781;SDS011;72517;47.260;11.422;2023-09-30T07:23:04;14.05;;;6.55;;
82781;SDS011;72517;47.260;11.422;2023-09-30T07:25:31;14.15;;;6.15;;
82781;SDS011;72517;47.260;11.422;2023-09-30T07:27:59;11.77;;;6.20;;
82781;SDS011;72517;47.260;11.422;2023-09-30T07:30:27;13.05;;;6.28;;
82781;SDS011;72517;47.260;11.422;2023-09-30T07:32:54;15.27;;;6.63;;
82781;SDS011;72517;47.260;11.422;2023-09-30T07:35:20;12.75;;;6.40;;
82781;SDS011;72517;47.260;11.422;2023-09-30T07:37:47;12.98;;;6.20;;
82781;SDS011;72517;47.260;11.422;2023-09-30T07:40:16;13.30;;;7.32;;
82781;SDS011;72517;47.260;11.422;2023-09-30T07:42:43;16.20;;;7.68;;
82781;SDS011;72517;47.260;11.422;2023-09-30T07:45:10;16.17;;;7.47;;
82781;SDS011;72517;47.260;11.422;2023-09-30T07:47:42;17.20;;;8.20;;
82781;SDS011;72517;47.260;11.422;2023-09-30T07:50:12;16.70;;;7.70;;
82781;SDS011;72517;47.260;11.422;2023-09-30T07:52:38;22.67;;;12.30;;
82781;SDS011;72517;47.260;11.422;2023-09-30T07:55:07;14.52;;;8.07;;
82781;SDS011;72517;47.260;11.422;2023-09-30T07:57:35;15.25;;;7.88;;
82781;SDS011;72517;47.260;11.422;2023-09-30T08:00:02;13.45;;;7.43;;
82781;SDS011;72517;47.260;11.422;2023-09-30T08:02:33;14.57;;;7.35;;
82781;SDS011;72517;47.260;11.422;2023-09-30T08:04:59;19.88;;;8.68;;
82781;SDS011;72517;47.260;11.422;2023-09-30T08:07:26;18.27;;;8.27;;
82781;SDS011;72517;47.260;11.422;2023-09-30T08:09:53;18.67;;;8.73;;
82781;SDS011;72517;47.260;11.422;2023-09-30T08:12:20;17.42;;;8.35;;
82781;SDS011;72517;47.260;11.422;2023-09-30T08:14:47;18.75;;;9.00;;
82781;SDS011;72517;47.260;11.422;2023-09-30T08:17:14;18.27;;;9.85;;
82781;SDS011;72517;47.260;11.422;2023-09-30T08:19:42;21.85;;;10.57;;
82781;SDS011;72517;47.260;11.422;2023-09-30T08:22:11;23.70;;;9.73;;
82781;SDS011;72517;47.260;11.422;2023-09-30T08:24:38;18.40;;;9.00;;
82781;SDS011;72517;47.260;11.422;2023-09-30T08:27:05;23.70;;;9.70;;
82781;SDS011;72517;47.260;11.422;2023-09-30T08:29:35;19.90;;;9.85;;
82781;SDS011;72517;47.260;11.422;2023-09-30T08:32:02;19.50;;;9.45;;
82781;SDS011;72517;47.260;11.422;2023-09-30T08:34:29;20.23;;;9.95;;
82781;SDS011;72517;47.260;11.422;2023-09-30T08:36:56;22.42;;;9.60;;
82781;SDS011;72517;47.260;11.422;2023-09-30T08:39:24;20.67;;;10.25;;
82781;SDS011;72517;47.260;11.422;2023-09-30T08:41:51;19.75;;;10.07;;
82781;SDS011;72517;47.260;11.422;2023-09-30T08:44:21;20.88;;;10.10;;
82781;SDS011;72517;47.260;11.422;2023-09-30T08:46:47;23.50;;;10.70;;
82781;SDS011;72517;47.260;11.422;2023-09-30T08:49:17;23.20;;;10.70;;
82781;SDS011;72517;47.260;11.422;2023-09-30T08:51:46;26.15;;;10.98;;
82781;SDS011;72517;47.260;11.422;2023-09-30T08:54:15;23.27;;;10.88;;
82781;SDS011;72517;47.260;11.422;2023-09-30T08:56:42;21.85;;;10.82;;
82781;SDS011;72517;47.260;11.422;2023-09-30T08:59:14;24.15;;;11.70;;
82781;SDS011;72517;47.260;11.422;2023-09-30T09:01:41;22.73;;;11.48;;
82781;SDS011;72517;47.260;11.422;2023-09-30T09:04:09;22.02;;;11.27;;
82781;SDS011;72517;47.260;11.422;2023-09-30T09:06:36;23.15;;;12.10;;
82781;SDS011;72517;47.260;11.422;2023-09-30T09:09:13;24.38;;;12.48;;
82781;SDS011;72517;47.260;11.422;2023-09-30T09:11:42;24.90;;;12.43;;
82781;SDS011;72517;47.260;11.422;2023-09-30T09:14:09;24.60;;;12.50;;
82781;SDS011;72517;47.260;11.422;2023-09-30T09:16:36;25.95;;;12.82;;
82781;SDS011;72517;47.260;11.422;2023-09-30T09:19:12;26.00;;;13.15;;
82781;SDS011;72517;47.260;11.422;2023-09-30T09:22:02;26.13;;;13.15;;
82781;SDS011;72517;47.260;11.422;2023-09-30T09:24:33;23.38;;;12.93;;
82781;SDS011;72517;47.260;11.422;2023-09-30T09:27:04;26.90;;;12.90;;
82781;SDS011;72517;47.260;11.422;2023-09-30T09:29:32;22.92;;;11.98;;
82781;SDS011;72517;47.260;11.422;2023-09-30T09:32:07;27.83;;;13.10;;
82781;SDS011;72517;47.260;11.422;2023-09-30T09:34:41;23.00;;;12.02;;
82781;SDS011;72517;47.260;11.422;2023-09-30T09:39:40;26.98;;;12.55;;
82781;SDS011;72517;47.260;11.422;2023-09-30T09:42:23;25.75;;;13.05;;
82781;SDS011;72517;47.260;11.422;2023-09-30T09:44:55;25.60;;;12.95;;
82781;SDS011;72517;47.260;11.422;2023-09-30T09:47:31;24.23;;;12.70;;
82781;SDS011;72517;47.260;11.422;2023-09-30T09:49:59;24.30;;;12.90;;
82781;SDS011;72517;47.260;11.422;2023-09-30T09:52:30;26.98;;;12.48;;
82781;SDS011;72517;47.260;11.422;2023-09-30T09:55:00;23.80;;;12.32;;
82781;SDS011;72517;47.260;11.422;2023-09-30T09:57:28;26.85;;;13.32;;
82781;SDS011;72517;47.260;11.422;2023-09-30T09:59:57;23.92;;;12.80;;
82781;SDS011;72517;47.260;11.422;2023-09-30T10:02:25;22.02;;;13.18;;
82781;SDS011;72517;47.260;11.422;2023-09-30T10:04:53;23.48;;;12.18;;
82781;SDS011;72517;47.260;11.422;2023-09-30T10:07:27;23.50;;;12.48;;
82781;SDS011;72517;47.260;11.422;2023-09-30T10:10:00;26.45;;;12.73;;
82781;SDS011;72517;47.260;11.422;2023-09-30T10:12:35;25.70;;;12.38;;
82781;SDS011;72517;47.260;11.422;2023-09-30T10:18:08;24.23;;;11.88;;
82781;SDS011;72517;47.260;11.422;2023-09-30T10:20:38;22.60;;;14.85;;
82781;SDS011;72517;47.260;11.422;2023-09-30T10:23:19;19.00;;;11.95;;
82781;SDS011;72517;47.260;11.422;2023-09-30T10:25:48;16.95;;;11.23;;
82781;SDS011;72517;47.260;11.422;2023-09-30T10:36:29;17.10;;;11.27;;
82781;SDS011;72517;47.260;11.422;2023-09-30T10:38:58;17.83;;;11.32;;
82781;SDS011;72517;47.260;11.422;2023-09-30T10:46:50;21.30;;;11.88;;
82781;SDS011;72517;47.260;11.422;2023-09-30T10:51:53;19.92;;;12.25;;
82781;SDS011;72517;47.260;11.422;2023-09-30T10:54:24;16.88;;;11.93;;
82781;SDS011;72517;47.260;11.422;2023-09-30T10:56:52;18.08;;;12.43;;
82781;SDS011;72517;47.260;11.422;2023-09-30T10:59:23;21.70;;;14.05;;
82781;SDS011;72517;47.260;11.422;2023-09-30T11:01:51;21.90;;;13.48;;
82781;SDS011;72517;47.260;11.422;2023-09-30T11:04:19;22.50;;;13.60;;
82781;SDS011;72517;47.260;11.422;2023-09-30T11:06:46;20.23;;;13.13;;
82781;SDS011;72517;47.260;11.422;2023-09-30T11:09:17;25.02;;;14.25;;
82781;SDS011;72517;47.260;11.422;2023-09-30T11:11:49;21.17;;;13.52;;
82781;SDS011;72517;47.260;11.422;2023-09-30T11:14:24;18.05;;;12.80;;
82781;SDS011;72517;47.260;11.422;2023-09-30T11:16:53;20.65;;;13.43;;
82781;SDS011;72517;47.260;11.422;2023-09-30T11:19:22;19.05;;;12.30;;
82781;SDS011;72517;47.260;11.422;2023-09-30T11:21:50;19.13;;;12.18;;
82781;SDS011;72517;47.260;11.422;2023-09-30T11:24:22;22.70;;;13.45;;
82781;SDS011;72517;47.260;11.422;2023-09-30T11:26:52;19.20;;;13.27;;
82781;SDS011;72517;47.260;11.422;2023-09-30T11:29:19;21.27;;;13.50;;
82781;SDS011;72517;47.260;11.422;2023-09-30T11:34:17;19.00;;;13.63;;
82781;SDS011;72517;47.260;11.422;2023-09-30T11:36:48;20.25;;;13.57;;
82781;SDS011;72517;47.260;11.422;2023-09-30T11:39:26;18.05;;;12.75;;
82781;SDS011;72517;47.260;11.422;2023-09-30T11:41:55;17.75;;;12.77;;
82781;SDS011;72517;47.260;11.422;2023-09-30T11:44:23;18.80;;;12.93;;
82781;SDS011;72517;47.260;11.422;2023-09-30T11:46:58;21.83;;;13.25;;
82781;SDS011;72517;47.260;11.422;2023-09-30T11:49:36;19.45;;;12.38;;
82781;SDS011;72517;47.260;11.422;2023-09-30T11:52:13;19.38;;;12.07;;
82781;SDS011;72517;47.260;11.422;2023-09-30T11:54:42;18.85;;;12.40;;
82781;SDS011;72517;47.260;11.422;2023-09-30T11:57:18;21.10;;;14.23;;
82781;SDS011;72517;47.260;11.422;2023-09-30T11:59:46;22.08;;;13.32;;
82781;SDS011;72517;47.260;11.422;2023-09-30T12:02:16;20.00;;;12.88;;
82781;SDS011;72517;47.260;11.422;2023-09-30T12:04:43;18.77;;;12.27;;
82781;SDS011;72517;47.260;11.422;2023-09-30T12:07:12;18.88;;;12.85;;
82781;SDS011;72517;47.260;11.422;2023-09-30T12:12:06;19.33;;;12.55;;
82781;SDS011;72517;47.260;11.422;2023-09-30T12:14:34;20.17;;;12.25;;
82781;SDS011;72517;47.260;11.422;2023-09-30T12:21:54;21.52;;;12.57;;
82781;SDS011;72517;47.260;11.422;2023-09-30T12:24:21;21.00;;;13.57;;
82781;SDS011;72517;47.260;11.422;2023-09-30T12:26:50;19.52;;;13.52;;
82781;SDS011;72517;47.260;11.422;2023-09-30T12:29:18;22.00;;;12.82;;
82781;SDS011;72517;47.260;11.422;2023-09-30T12:31:47;22.88;;;12.68;;
82781;SDS011;72517;47.260;11.422;2023-09-30T12:34:15;20.73;;;12.70;;
82781;SDS011;72517;47.260;11.422;2023-09-30T12:36:42;25.15;;;14.52;;
82781;SDS011;72517;47.260;11.422;2023-09-30T12:39:10;23.98;;;13.35;;
82781;SDS011;72517;47.260;11.422;2023-09-30T12:41:38;23.52;;;14.27;;
82781;SDS011;72517;47.260;11.422;2023-09-30T12:46:32;22.58;;;13.10;;
82781;SDS011;72517;47.260;11.422;2023-09-30T12:49:01;20.73;;;12.45;;
82781;SDS011;72517;47.260;11.422;2023-09-30T12:51:29;20.50;;;12.67;;
82781;SDS011;72517;47.260;11.422;2023-09-30T12:53:56;27.40;;;13.80;;
82781;SDS011;72517;47.260;11.422;2023-09-30T12:56:24;22.63;;;12.80;;
82781;SDS011;72517;47.260;11.422;2023-09-30T12:58:50;21.42;;;12.65;;
82781;SDS011;72517;47.260;11.422;2023-09-30T13:01:18;23.88;;;13.50;;
82781;SDS011;72517;47.260;11.422;2023-09-30T13:03:46;23.15;;;13.18;;
82781;SDS011;72517;47.260;11.422;2023-09-30T13:06:13;25.20;;;13.43;;
82781;SDS011;72517;47.260;11.422;2023-09-30T13:08:41;25.05;;;13.75;;
82781;SDS011;72517;47.260;11.422;2023-09-30T13:11:08;25.88;;;13.75;;
82781;SDS011;72517;47.260;11.422;2023-09-30T13:13:36;25.67;;;13.77;;
82781;SDS011;72517;47.260;11.422;2023-09-30T13:16:03;25.48;;;14.05;;
82781;SDS011;72517;47.260;11.422;2023-09-30T13:18:31;24.30;;;13.98;;
82781;SDS011;72517;47.260;11.422;2023-09-30T13:20:58;23.85;;;13.30;;
82781;SDS011;72517;47.260;11.422;2023-09-30T13:23:25;26.60;;;13.77;;
82781;SDS011;72517;47.260;11.422;2023-09-30T13:25:52;24.33;;;13.10;;
82781;SDS011;72517;47.260;11.422;2023-09-30T13:28:19;30.83;;;14.13;;
82781;SDS011;72517;47.260;11.422;2023-09-30T13:30:46;25.75;;;13.65;;
82781;SDS011;72517;47.260;11.422;2023-09-30T13:33:13;31.92;;;13.57;;
82781;SDS011;72517;47.260;11.422;2023-09-30T13:35:40;28.55;;;14.80;;
82781;SDS011;72517;47.260;11.422;2023-09-30T13:38:06;27.67;;;13.45;;
82781;SDS011;72517;47.260;11.422;2023-09-30T13:40:33;27.60;;;14.07;;
82781;SDS011;72517;47.260;11.422;2023-09-30T13:43:00;27.60;;;13.82;;
82781;SDS011;72517;47.260;11.422;2023-09-30T13:45:29;27.63;;;13.80;;
82781;SDS011;72517;47.260;11.422;2023-09-30T13:47:56;28.65;;;13.50;;
82781;SDS011;72517;47.260;11.422;2023-09-30T13:50:23;28.65;;;13.20;;
82781;SDS011;72517;47.260;11.422;2023-09-30T13:52:50;27.33;;;13.13;;
82781;SDS011;72517;47.260;11.422;2023-09-30T13:55:17;28.98;;;14.25;;
82781;SDS011;72517;47.260;11.422;2023-09-30T13:57:45;31.55;;;14.13;;
82781;SDS011;72517;47.260;11.422;2023-09-30T14:00:12;29.88;;;14.35;;
82781;SDS011;72517;47.260;11.422;2023-09-30T14:02:41;30.98;;;13.90;;
82781;SDS011;72517;47.260;11.422;2023-09-30T14:05:08;30.13;;;14.00;;
82781;SDS011;72517;47.260;11.422;2023-09-30T14:07:36;29.52;;;13.55;;
82781;SDS011;72517;47.260;11.422;2023-09-30T14:10:05;29.00;;;14.15;;
82781;SDS011;72517;47.260;11.422;2023-09-30T14:12:35;28.23;;;14.07;;
82781;SDS011;72517;47.260;11.422;2023-09-30T14:15:02;30.95;;;13.93;;
82781;SDS011;72517;47.260;11.422;2023-09-30T14:17:30;27.80;;;13.77;;
82781;SDS011;72517;47.260;11.422;2023-09-30T14:19:57;30.50;;;14.13;;
82781;SDS011;72517;47.260;11.422;2023-09-30T14:22:24;29.75;;;14.07;;
82781;SDS011;72517;47.260;11.422;2023-09-30T14:24:51;31.17;;;13.60;;
82781;SDS011;72517;47.260;11.422;2023-09-30T14:27:18;25.55;;;13.85;;
82781;SDS011;72517;47.260;11.422;2023-09-30T14:29:45;28.10;;;14.30;;
82781;SDS011;72517;47.260;11.422;2023-09-30T14:32:12;27.35;;;13.50;;
82781;SDS011;72517;47.260;11.422;2023-09-30T14:34:39;28.75;;;14.02;;
82781;SDS011;72517;47.260;11.422;2023-09-30T14:37:06;27.38;;;13.63;;
82781;SDS011;72517;47.260;11.422;2023-09-30T14:39:32;30.08;;;13.63;;
82781;SDS011;72517;47.260;11.422;2023-09-30T14:42:00;32.67;;;13.68;;
82781;SDS011;72517;47.260;11.422;2023-09-30T14:44:27;30.15;;;14.35;;
82781;SDS011;72517;47.260;11.422;2023-09-30T14:46:53;31.05;;;14.13;;
82781;SDS011;72517;47.260;11.422;2023-09-30T14:49:21;26.30;;;13.05;;
82781;SDS011;72517;47.260;11.422;2023-09-30T14:51:47;28.67;;;13.15;;
82781;SDS011;72517;47.260;11.422;2023-09-30T14:54:14;28.35;;;13.93;;
82781;SDS011;72517;47.260;11.422;2023-09-30T14:56:41;29.58;;;13.20;;
82781;SDS011;72517;47.260;11.422;2023-09-30T14:59:08;28.65;;;13.73;;
82781;SDS011;72517;47.260;11.422;2023-09-30T15:01:35;26.23;;;12.95;;
82781;SDS011;72517;47.260;11.422;2023-09-30T15:04:01;30.48;;;12.93;;